createdAt,value
2022-10-02T00:02:09.291Z,16.80
2022-10-02T00:04:45.958Z,13.90
2022-10-02T00:07:14.441Z,16.58
2022-10-02T00:09:59.725Z,13.60
2022-10-02T00:12:29.268Z,14.75
2022-10-02T00:15:02.639Z,16.80
2022-10-02T00:17:34.463Z,16.48
2022-10-02T00:20:01.247Z,16.88
2022-10-02T00:23:00.835Z,11.98
2022-10-02T00:25:42.253Z,19.20
2022-10-02T00:28:44.733Z,14.07
2022-10-02T00:31:20.855Z,15.88
2022-10-02T00:34:02.926Z,23.85
2022-10-02T00:37:04.473Z,20.23
2022-10-02T00:39:52.535Z,17.67
2022-10-02T00:42:37.540Z,19.02
2022-10-02T00:45:28.431Z,19.02
2022-10-02T00:48:25.688Z,20.98
2022-10-02T00:51:23.049Z,16.50
2022-10-02T00:53:52.438Z,15.25
2022-10-02T00:56:37.513Z,19.15
2022-10-02T00:59:37.809Z,20.08
2022-10-02T01:02:25.892Z,17.48
2022-10-02T01:04:53.152Z,16.75
2022-10-02T01:07:20.687Z,15.43
2022-10-02T01:09:47.366Z,20.08
2022-10-02T01:12:14.708Z,19.85
2022-10-02T01:14:41.270Z,14.88
2022-10-02T01:17:34.156Z,16.08
2022-10-02T01:20:03.664Z,19.15
2022-10-02T01:22:53.702Z,22.83
2022-10-02T01:25:20.559Z,19.98
2022-10-02T01:27:47.771Z,22.67
2022-10-02T01:30:17.712Z,21.30
2022-10-02T01:32:53.296Z,24.90
2022-10-02T01:35:22.095Z,16.02
2022-10-02T01:37:50.861Z,24.27
2022-10-02T01:40:43.808Z,18.10
2022-10-02T01:43:27.630Z,18.23
2022-10-02T01:46:06.021Z,18.55
2022-10-02T01:48:35.449Z,22.50
2022-10-02T01:51:26.735Z,21.13
2022-10-02T01:54:11.643Z,21.92
2022-10-02T01:57:09.971Z,19.10
2022-10-02T01:59:42.339Z,20.05
2022-10-02T02:02:08.793Z,20.45
2022-10-02T02:04:50.084Z,16.23
2022-10-02T02:07:22.550Z,27.98
2022-10-02T02:09:59.377Z,21.20
2022-10-02T02:12:54.240Z,23.60
2022-10-02T02:15:28.400Z,18.55
2022-10-02T02:18:01.549Z,15.70
2022-10-02T02:20:36.511Z,19.08
2022-10-02T02:23:14.118Z,16.35
2022-10-02T02:25:44.930Z,18.38
2022-10-02T02:28:14.937Z,26.75
2022-10-02T02:30:45.831Z,16.92
2022-10-02T02:33:18.058Z,18.88
2022-10-02T02:35:48.489Z,19.23
2022-10-02T02:38:30.167Z,17.15
2022-10-02T02:41:02.766Z,25.05
2022-10-02T02:43:35.230Z,27.17
2022-10-02T02:46:32.329Z,20.25
2022-10-02T02:49:09.708Z,23.02
2022-10-02T02:51:42.012Z,19.48
2022-10-02T02:54:23.871Z,17.58
2022-10-02T02:56:53.024Z,18.80
2022-10-02T02:59:22.993Z,21.15
2022-10-02T03:01:49.686Z,20.38
2022-10-02T03:04:16.182Z,20.05
2022-10-02T03:06:45.305Z,24.10
2022-10-02T03:09:17.832Z,14.40
2022-10-02T03:12:02.703Z,21.73
2022-10-02T03:14:35.145Z,22.02
2022-10-02T03:17:13.764Z,21.45
2022-10-02T03:19:48.750Z,21.48
2022-10-02T03:22:18.023Z,24.20
2022-10-02T03:24:48.395Z,23.63
2022-10-02T03:27:23.100Z,21.98
2022-10-02T03:30:00.059Z,19.48
2022-10-02T03:32:28.181Z,21.38
2022-10-02T03:34:55.226Z,17.50
2022-10-02T03:37:23.374Z,23.42
2022-10-02T03:39:49.772Z,18.65
2022-10-02T03:42:26.007Z,18.63
2022-10-02T03:44:52.480Z,20.77
2022-10-02T03:47:19.067Z,17.73
2022-10-02T03:49:45.575Z,15.35
2022-10-02T03:52:17.794Z,21.13
2022-10-02T03:54:44.615Z,19.83
2022-10-02T03:57:19.801Z,17.65
2022-10-02T03:59:55.118Z,26.10
2022-10-02T04:02:27.627Z,20.48
2022-10-02T04:05:01.104Z,18.60
2022-10-02T04:07:36.578Z,17.25
2022-10-02T04:10:30.933Z,15.73
2022-10-02T04:13:09.638Z,15.30
2022-10-02T04:15:54.437Z,16.58
2022-10-02T04:18:24.901Z,17.85
2022-10-02T04:20:56.353Z,18.85
2022-10-02T04:26:04.813Z,21.17
2022-10-02T04:28:39.124Z,19.10
2022-10-02T04:31:10.866Z,17.58
2022-10-02T04:33:38.547Z,21.77
2022-10-02T04:36:11.019Z,25.10
2022-10-02T04:39:02.782Z,17.75
2022-10-02T04:44:38.470Z,20.58
2022-10-02T04:47:46.267Z,26.02
2022-10-02T04:50:41.840Z,18.70
2022-10-02T04:53:40.383Z,24.35
2022-10-02T04:56:15.586Z,17.67
2022-10-02T04:58:53.925Z,19.52
2022-10-02T05:01:31.569Z,18.00
2022-10-02T05:04:20.452Z,19.70
2022-10-02T05:07:11.852Z,24.75
2022-10-02T05:10:10.406Z,21.00
2022-10-02T05:12:58.622Z,17.35
2022-10-02T05:15:53.001Z,21.35
2022-10-02T05:18:55.750Z,18.55
2022-10-02T05:21:34.341Z,22.33
2022-10-02T05:24:21.957Z,16.55
2022-10-02T05:27:15.268Z,16.77
2022-10-02T05:30:17.983Z,16.58
2022-10-02T05:32:53.272Z,10.38
2022-10-02T05:35:50.473Z,19.63
2022-10-02T05:38:51.510Z,15.68
2022-10-02T05:41:32.546Z,12.50
2022-10-02T05:44:16.372Z,20.48
2022-10-02T05:46:58.728Z,14.10
2022-10-02T05:49:40.882Z,21.45
2022-10-02T05:52:19.219Z,14.27
2022-10-02T05:54:48.543Z,14.77
2022-10-02T05:57:36.937Z,18.40
2022-10-02T06:00:25.593Z,19.85
2022-10-02T06:03:16.485Z,12.82
2022-10-02T06:06:10.579Z,15.63
2022-10-02T06:09:09.304Z,13.18
2022-10-02T06:12:00.671Z,17.13
2022-10-02T06:15:02.201Z,17.85
2022-10-02T06:17:34.004Z,13.02
2022-10-02T06:20:23.269Z,22.23
2022-10-02T06:23:01.117Z,15.50
2022-10-02T06:25:50.444Z,18.00
2022-10-02T06:28:25.715Z,14.60
2022-10-02T06:31:12.410Z,15.50
2022-10-02T06:33:39.053Z,20.05
2022-10-02T06:36:11.486Z,19.77
2022-10-02T06:39:06.998Z,20.65
2022-10-02T06:41:36.172Z,17.35
2022-10-02T06:44:24.036Z,21.83
2022-10-02T06:47:27.662Z,15.75
2022-10-02T06:50:21.698Z,19.20
2022-10-02T06:53:03.075Z,21.38
2022-10-02T06:55:43.990Z,23.35
2022-10-02T06:58:42.730Z,22.45
2022-10-02T07:01:28.673Z,20.23
2022-10-02T07:04:26.592Z,14.45
2022-10-02T07:07:04.076Z,22.10
2022-10-02T07:09:51.709Z,19.00
2022-10-02T07:12:35.915Z,12.35
2022-10-02T07:15:42.615Z,15.95
2022-10-02T07:18:23.088Z,19.42
2022-10-02T07:21:01.698Z,17.83
2022-10-02T07:24:00.062Z,19.23
2022-10-02T07:26:41.858Z,20.80
2022-10-02T07:29:26.638Z,17.45
2022-10-02T07:32:17.938Z,20.55
2022-10-02T07:34:58.688Z,19.10
2022-10-02T07:37:50.157Z,19.80
2022-10-02T07:40:36.745Z,17.98
2022-10-02T07:43:16.933Z,18.90
2022-10-02T07:46:11.449Z,13.93
2022-10-02T07:49:06.409Z,21.40
2022-10-02T07:51:47.774Z,16.55
2022-10-02T07:54:40.238Z,15.52
2022-10-02T07:57:40.645Z,20.27
2022-10-02T08:00:15.873Z,16.05
2022-10-02T08:02:54.945Z,19.13
2022-10-02T08:05:35.826Z,16.10
2022-10-02T08:08:23.949Z,15.60
2022-10-02T08:11:08.120Z,14.25
2022-10-02T08:13:44.718Z,11.70
2022-10-02T08:16:13.904Z,18.40
2022-10-02T08:18:48.911Z,20.38
2022-10-02T08:21:18.761Z,15.63
2022-10-02T08:23:52.493Z,15.65
2022-10-02T08:26:21.433Z,19.85
2022-10-02T08:28:53.648Z,12.93
2022-10-02T08:31:20.263Z,16.85
2022-10-02T08:33:46.804Z,15.70
2022-10-02T08:36:19.260Z,12.25
2022-10-02T08:39:23.512Z,11.63
2022-10-02T08:42:02.866Z,14.30
2022-10-02T08:45:03.284Z,9.63
2022-10-02T08:47:48.147Z,14.38
2022-10-02T08:50:52.520Z,18.67
2022-10-02T08:53:37.119Z,10.90
2022-10-02T08:56:28.405Z,17.38
2022-10-02T08:58:57.590Z,10.18
2022-10-02T09:01:42.917Z,11.88
2022-10-02T09:04:21.236Z,15.07
2022-10-02T09:07:18.589Z,11.35
2022-10-02T09:10:20.292Z,14.75
2022-10-02T09:12:49.631Z,17.35
2022-10-02T09:15:32.142Z,13.32
2022-10-02T09:18:15.414Z,10.70
2022-10-02T09:20:44.147Z,15.93
2022-10-02T09:23:32.231Z,12.80
2022-10-02T09:26:36.611Z,11.00
2022-10-02T09:29:40.346Z,13.70
2022-10-02T09:32:15.573Z,12.90
2022-10-02T09:34:50.970Z,13.70
2022-10-02T09:37:29.532Z,12.10
2022-10-02T09:40:01.964Z,20.58
2022-10-02T09:42:47.148Z,13.52
2022-10-02T09:45:19.661Z,17.70
2022-10-02T09:48:10.649Z,17.42
2022-10-02T09:50:55.949Z,14.57
2022-10-02T09:53:28.537Z,19.75
2022-10-02T09:56:21.915Z,17.30
2022-10-02T09:59:09.612Z,11.05
2022-10-02T10:02:03.798Z,17.05
2022-10-02T10:05:19.991Z,13.77
2022-10-02T10:08:08.122Z,13.65
2022-10-02T10:10:55.775Z,12.63
2022-10-02T10:13:59.358Z,11.77
2022-10-02T10:16:34.841Z,10.90
2022-10-02T10:19:10.155Z,9.25
2022-10-02T10:21:54.798Z,10.73
2022-10-02T10:24:33.452Z,10.88
2022-10-02T10:27:21.716Z,12.18
2022-10-02T10:30:25.803Z,11.48
2022-10-02T10:33:24.885Z,9.55
2022-10-02T10:36:29.113Z,11.85
2022-10-02T10:39:22.853Z,9.35
2022-10-02T10:42:10.868Z,14.20
2022-10-02T10:45:02.036Z,9.52
2022-10-02T10:47:53.837Z,8.30
2022-10-02T10:50:57.572Z,11.52
2022-10-02T10:54:11.768Z,13.73
2022-10-02T10:56:50.967Z,11.10
2022-10-02T10:59:58.628Z,18.45
2022-10-02T11:02:59.016Z,10.63
2022-10-02T11:05:43.897Z,16.52
2022-10-02T11:08:41.095Z,12.98
2022-10-02T11:11:20.242Z,9.77
2022-10-02T11:13:46.664Z,10.60
2022-10-02T11:16:51.434Z,12.15
2022-10-02T11:19:42.908Z,11.63
2022-10-02T11:25:14.006Z,11.45
2022-10-02T11:27:49.290Z,9.32
2022-10-02T11:30:24.394Z,10.27
2022-10-02T11:33:08.848Z,8.77
2022-10-02T11:35:54.031Z,12.48
2022-10-02T11:38:29.721Z,12.98
2022-10-02T11:40:59.190Z,13.73
2022-10-02T11:43:41.867Z,8.65
2022-10-02T11:46:45.178Z,8.73
2022-10-02T11:49:23.867Z,10.57
2022-10-02T11:51:50.295Z,9.93
2022-10-02T11:54:26.736Z,10.70
2022-10-02T11:57:11.697Z,11.95
2022-10-02T12:00:02.547Z,13.00
2022-10-02T12:03:00.469Z,13.20
2022-10-02T12:05:45.690Z,10.48
2022-10-02T12:08:28.915Z,7.90
2022-10-02T12:11:25.955Z,9.18
2022-10-02T12:14:10.928Z,9.48
2022-10-02T12:16:58.718Z,8.95
2022-10-02T12:19:40.755Z,11.07
2022-10-02T12:22:14.298Z,13.25
2022-10-02T12:25:11.716Z,11.20
2022-10-02T12:27:43.902Z,11.60
2022-10-02T12:30:20.668Z,8.80
2022-10-02T12:33:14.918Z,11.85
2022-10-02T12:36:01.832Z,12.50
2022-10-02T12:38:54.100Z,11.50
2022-10-02T12:41:39.053Z,10.23
2022-10-02T12:44:27.328Z,9.10
2022-10-02T12:46:53.734Z,10.63
2022-10-02T12:49:26.210Z,11.35
2022-10-02T12:52:23.674Z,8.77
2022-10-02T12:55:18.055Z,11.98
2022-10-02T12:57:55.040Z,13.45
2022-10-02T13:00:32.642Z,9.57
2022-10-02T13:03:35.957Z,8.98
2022-10-02T13:06:19.889Z,9.77
2022-10-02T13:09:06.295Z,10.20
2022-10-02T13:11:56.109Z,10.40
2022-10-02T13:14:53.500Z,10.55
2022-10-02T13:17:51.628Z,7.05
2022-10-02T13:20:35.993Z,11.00
2022-10-02T13:23:30.279Z,9.70
2022-10-02T13:26:17.723Z,10.25
2022-10-02T13:29:09.177Z,9.05
2022-10-02T13:34:20.687Z,9.90
2022-10-02T13:37:02.676Z,6.88
2022-10-02T13:40:05.571Z,10.13
2022-10-02T13:42:35.086Z,9.15
2022-10-02T13:45:23.260Z,8.80
2022-10-02T13:48:14.226Z,8.43
2022-10-02T13:51:03.393Z,7.53
2022-10-02T13:53:41.596Z,11.77
2022-10-02T13:56:21.516Z,11.45
2022-10-02T13:58:58.333Z,8.63
2022-10-02T14:01:31.244Z,9.85
2022-10-02T14:04:14.907Z,7.88
2022-10-02T14:06:54.486Z,11.25
2022-10-02T14:09:29.384Z,11.45
2022-10-02T14:12:27.531Z,9.00
2022-10-02T14:15:19.600Z,9.40
2022-10-02T14:18:00.925Z,12.13
2022-10-02T14:23:37.988Z,10.25
2022-10-02T14:26:35.119Z,9.10
2022-10-02T14:29:28.369Z,8.48
2022-10-02T14:32:17.981Z,8.52
2022-10-02T14:35:09.717Z,8.82
2022-10-02T14:37:56.737Z,9.65
2022-10-02T14:40:39.898Z,11.18
2022-10-02T14:43:44.436Z,9.90
2022-10-02T14:46:34.040Z,7.32
2022-10-02T14:49:07.799Z,8.20
2022-10-02T14:51:52.929Z,7.20
2022-10-02T14:54:22.346Z,11.38
2022-10-02T14:57:10.728Z,11.18
2022-10-02T14:59:58.461Z,8.93
2022-10-02T15:02:46.187Z,10.10
2022-10-02T15:05:31.575Z,9.73
2022-10-02T15:07:59.504Z,9.63
2022-10-02T15:10:32.520Z,13.00
2022-10-02T15:13:25.456Z,11.07
2022-10-02T15:16:23.230Z,8.43
2022-10-02T15:18:59.268Z,8.25
2022-10-02T15:21:45.980Z,14.50
2022-10-02T15:24:33.605Z,8.98
2022-10-02T15:27:19.705Z,14.32
2022-10-02T15:29:54.089Z,13.13
2022-10-02T15:32:29.607Z,10.40
2022-10-02T15:35:08.167Z,7.50
2022-10-02T15:37:40.390Z,10.70
2022-10-02T15:40:32.411Z,6.50
2022-10-02T15:43:10.859Z,11.02
2022-10-02T15:46:06.180Z,11.95
2022-10-02T15:48:38.552Z,10.02
2022-10-02T15:51:30.025Z,11.52
2022-10-02T15:56:59.662Z,9.30
2022-10-02T15:59:26.071Z,7.07
2022-10-02T16:02:06.725Z,7.53
2022-10-02T16:04:50.230Z,9.52
2022-10-02T16:07:54.237Z,11.35
2022-10-02T16:10:25.199Z,13.40
2022-10-02T16:13:17.556Z,8.40
2022-10-02T16:15:53.837Z,7.72
2022-10-02T16:18:51.284Z,10.80
2022-10-02T16:21:44.063Z,10.35
2022-10-02T16:24:51.949Z,10.18
2022-10-02T16:27:42.657Z,10.45
2022-10-02T16:30:12.164Z,9.50
2022-10-02T16:33:08.795Z,10.13
2022-10-02T16:35:50.292Z,7.63
2022-10-02T16:39:13.949Z,12.25
2022-10-02T16:42:11.232Z,8.55
2022-10-02T16:44:50.267Z,6.45
2022-10-02T16:47:35.633Z,8.65
2022-10-02T16:50:15.466Z,9.80
2022-10-02T16:53:02.572Z,9.38
2022-10-02T16:55:42.346Z,10.27
2022-10-02T16:58:29.367Z,11.35
2022-10-02T17:01:02.368Z,8.98
2022-10-02T17:03:54.103Z,6.88
2022-10-02T17:06:23.508Z,10.05
2022-10-02T17:09:14.029Z,9.32
2022-10-02T17:11:56.241Z,8.30
2022-10-02T17:14:35.059Z,8.50
2022-10-02T17:17:10.128Z,7.95
2022-10-02T17:19:50.144Z,12.98
2022-10-02T17:22:41.618Z,10.15
2022-10-02T17:28:10.367Z,12.32
2022-10-02T17:31:01.432Z,10.02
2022-10-02T17:33:39.876Z,9.98
2022-10-02T17:36:29.417Z,8.45
2022-10-02T17:39:02.021Z,10.63
2022-10-02T17:41:52.621Z,9.98
2022-10-02T17:44:36.261Z,15.60
2022-10-02T17:47:05.709Z,10.85
2022-10-02T17:49:40.862Z,10.00
2022-10-02T17:52:35.924Z,10.13
2022-10-02T17:55:25.368Z,9.73
2022-10-02T17:58:08.703Z,12.05
2022-10-02T18:00:39.958Z,11.63
2022-10-02T18:05:54.138Z,11.40
2022-10-02T18:08:46.134Z,14.18
2022-10-02T18:11:41.032Z,11.77
2022-10-02T18:14:22.420Z,13.85
2022-10-02T18:17:00.935Z,12.57
2022-10-02T18:19:27.326Z,9.68
2022-10-02T18:22:08.995Z,12.90
2022-10-02T18:24:50.397Z,10.13
2022-10-02T18:27:55.962Z,13.35
2022-10-02T18:30:25.077Z,10.82
2022-10-02T18:33:16.293Z,13.77
2022-10-02T18:36:04.553Z,13.30
2022-10-02T18:38:59.843Z,9.02
2022-10-02T18:41:44.781Z,13.13
2022-10-02T18:44:36.037Z,10.73
2022-10-02T18:47:24.245Z,10.27
2022-10-02T18:50:05.617Z,9.88
2022-10-02T18:52:43.239Z,11.32
2022-10-02T18:55:39.710Z,11.23
2022-10-02T18:58:34.248Z,12.82
2022-10-02T19:01:20.186Z,12.98
2022-10-02T19:03:52.456Z,11.32
2022-10-02T19:06:32.640Z,9.15
2022-10-02T19:09:14.484Z,12.77
2022-10-02T19:11:54.300Z,13.80
2022-10-02T19:14:29.787Z,13.38
2022-10-02T19:16:58.822Z,15.90
2022-10-02T19:19:26.889Z,14.63
2022-10-02T19:21:59.106Z,12.63
2022-10-02T19:24:31.499Z,11.48
2022-10-02T19:27:05.745Z,11.70
2022-10-02T19:29:55.615Z,15.18
2022-10-02T19:32:27.421Z,12.43
2022-10-02T19:35:11.740Z,12.82
2022-10-02T19:37:42.284Z,11.75
2022-10-02T19:40:21.323Z,10.13
2022-10-02T19:42:59.713Z,12.02
2022-10-02T19:45:31.030Z,11.80
2022-10-02T19:48:05.690Z,10.65
2022-10-02T19:50:41.891Z,13.30
2022-10-02T19:53:48.788Z,11.98
2022-10-02T19:56:24.663Z,16.15
2022-10-02T19:58:56.651Z,13.48
2022-10-02T20:01:26.602Z,11.13
2022-10-02T20:04:02.293Z,14.95
2022-10-02T20:06:31.786Z,11.90
2022-10-02T20:09:05.242Z,9.35
2022-10-02T20:11:38.682Z,15.95
2022-10-02T20:14:14.592Z,12.27
2022-10-02T20:16:41.119Z,15.00
2022-10-02T20:19:16.595Z,13.00
2022-10-02T20:21:55.899Z,14.35
2022-10-02T20:24:56.706Z,18.33
2022-10-02T20:28:00.777Z,17.63
2022-10-02T20:30:35.113Z,10.43
2022-10-02T20:33:10.646Z,15.48
2022-10-02T20:35:52.086Z,14.25
2022-10-02T20:38:26.029Z,13.10
2022-10-02T20:40:54.336Z,17.55
2022-10-02T20:43:46.752Z,16.35
2022-10-02T20:46:29.402Z,13.63
2022-10-02T20:49:08.848Z,17.00
2022-10-02T20:52:07.062Z,13.93
2022-10-02T20:54:53.255Z,12.68
2022-10-02T20:58:02.125Z,21.48
2022-10-02T21:00:56.251Z,13.73
2022-10-02T21:03:33.846Z,23.48
2022-10-02T21:06:38.178Z,16.42
2022-10-02T21:09:29.210Z,17.48
2022-10-02T21:12:03.884Z,16.50
2022-10-02T21:14:52.522Z,17.55
2022-10-02T21:17:31.395Z,19.48
2022-10-02T21:20:03.830Z,15.43
2022-10-02T21:22:36.010Z,17.98
2022-10-02T21:25:21.009Z,16.90
2022-10-02T21:27:50.141Z,16.27
2022-10-02T21:30:18.341Z,14.27
2022-10-02T21:33:00.054Z,17.17
2022-10-02T21:38:46.293Z,26.48
2022-10-02T21:41:50.981Z,36.75
2022-10-02T21:44:42.181Z,29.48
2022-10-02T21:47:11.405Z,20.10
2022-10-02T21:49:37.786Z,20.85
2022-10-02T21:52:23.092Z,21.80
2022-10-02T21:55:11.098Z,23.75
2022-10-02T21:57:43.347Z,15.45
2022-10-02T22:00:17.064Z,14.40
2022-10-02T22:03:21.204Z,19.75
2022-10-02T22:06:05.126Z,18.90
2022-10-02T22:08:42.827Z,18.48
2022-10-02T22:11:18.044Z,14.52
2022-10-02T22:13:45.639Z,19.30
2022-10-02T22:16:24.172Z,25.33
2022-10-02T22:19:09.201Z,18.90
2022-10-02T22:21:57.426Z,15.48
2022-10-02T22:24:32.771Z,17.60
2022-10-02T22:27:27.073Z,16.02
2022-10-02T22:29:57.661Z,15.77
2022-10-02T22:32:51.965Z,13.07
2022-10-02T22:36:02.696Z,13.95
2022-10-02T22:38:40.189Z,14.70
2022-10-02T22:41:18.716Z,19.15
2022-10-02T22:43:51.011Z,17.17
2022-10-02T22:46:32.431Z,16.88
2022-10-02T22:49:05.708Z,16.40
2022-10-02T22:51:38.346Z,13.40
2022-10-02T22:54:10.800Z,14.02
2022-10-02T22:56:56.464Z,13.02
2022-10-02T22:59:31.432Z,18.80
2022-10-02T23:02:14.016Z,14.93
2022-10-02T23:04:57.520Z,10.70
2022-10-02T23:07:26.519Z,17.13
2022-10-02T23:10:17.520Z,11.85
2022-10-02T23:12:55.856Z,11.90
2022-10-02T23:15:22.300Z,12.93
2022-10-02T23:18:13.632Z,17.88
2022-10-02T23:20:49.330Z,16.40
2022-10-02T23:23:23.731Z,12.75
2022-10-02T23:25:56.385Z,12.68
2022-10-02T23:28:35.183Z,12.63
2022-10-02T23:31:19.326Z,13.65
2022-10-02T23:33:51.732Z,15.52
2022-10-02T23:36:29.940Z,12.27
2022-10-02T23:39:09.643Z,12.98
2022-10-02T23:41:46.242Z,15.38
2022-10-02T23:44:34.567Z,16.77
2022-10-02T23:47:10.926Z,15.77
2022-10-02T23:49:47.390Z,11.98
2022-10-02T23:52:26.431Z,15.27
2022-10-02T23:54:58.819Z,15.20
2022-10-02T23:57:50.875Z,16.27
